sensor_id;sensor_type;location;lat;lon;timestamp;P1;durP1;ratioP1;P2;durP2;ratioP2
12848;SDS011;6493;50.928;7.172;2023-11-19T00:02:19;0.50;;;0.50;;
12848;SDS011;6493;50.928;7.172;2023-11-19T00:07:25;0.43;;;0.43;;
12848;SDS011;6493;50.928;7.172;2023-11-19T00:12:37;0.47;;;0.30;;
12848;SDS011;6493;50.928;7.172;2023-11-19T00:17:42;0.30;;;0.27;;
12848;SDS011;6493;50.928;7.172;2023-11-19T00:22:49;0.33;;;0.30;;
12848;SDS011;6493;50.928;7.172;2023-11-19T00:27:54;0.40;;;0.30;;
12848;SDS011;6493;50.928;7.172;2023-11-19T00:32:58;0.30;;;0.30;;
12848;SDS011;6493;50.928;7.172;2023-11-19T00:38:03;0.23;;;0.23;;
12848;SDS011;6493;50.928;7.172;2023-11-19T00:43:07;0.30;;;0.30;;
12848;SDS011;6493;50.928;7.172;2023-11-19T00:48:11;0.30;;;0.30;;
12848;SDS011;6493;50.928;7.172;2023-11-19T00:53:16;0.30;;;0.30;;
12848;SDS011;6493;50.928;7.172;2023-11-19T00:58:19;0.30;;;0.20;;
12848;SDS011;6493;50.928;7.172;2023-11-19T01:03:23;0.30;;;0.30;;
12848;SDS011;6493;50.928;7.172;2023-11-19T01:08:29;0.20;;;0.20;;
12848;SDS011;6493;50.928;7.172;2023-11-19T01:13:34;0.13;;;0.13;;
12848;SDS011;6493;50.928;7.172;2023-11-19T01:18:37;0.10;;;0.10;;
12848;SDS011;6493;50.928;7.172;2023-11-19T01:23:42;0.37;;;0.30;;
12848;SDS011;6493;50.928;7.172;2023-11-19T01:28:46;0.30;;;0.30;;
12848;SDS011;6493;50.928;7.172;2023-11-19T01:33:53;0.13;;;0.13;;
12848;SDS011;6493;50.928;7.172;2023-11-19T01:38:58;0.30;;;0.30;;
12848;SDS011;6493;50.928;7.172;2023-11-19T01:44:02;0.10;;;0.10;;
12848;SDS011;6493;50.928;7.172;2023-11-19T01:49:06;0.33;;;0.20;;
12848;SDS011;6493;50.928;7.172;2023-11-19T01:54:12;0.20;;;0.20;;
12848;SDS011;6493;50.928;7.172;2023-11-19T01:59:17;0.10;;;0.10;;
12848;SDS011;6493;50.928;7.172;2023-11-19T02:04:22;0.20;;;0.20;;
12848;SDS011;6493;50.928;7.172;2023-11-19T02:09:28;0.10;;;0.10;;
12848;SDS011;6493;50.928;7.172;2023-11-19T02:14:32;0.10;;;0.10;;
12848;SDS011;6493;50.928;7.172;2023-11-19T02:19:36;0.10;;;0.10;;
12848;SDS011;6493;50.928;7.172;2023-11-19T02:24:41;0.10;;;0.10;;
12848;SDS011;6493;50.928;7.172;2023-11-19T02:29:46;0.17;;;0.10;;
12848;SDS011;6493;50.928;7.172;2023-11-19T02:34:50;0.20;;;0.13;;
12848;SDS011;6493;50.928;7.172;2023-11-19T02:39:55;0.20;;;0.20;;
12848;SDS011;6493;50.928;7.172;2023-11-19T02:45:00;0.20;;;0.17;;
12848;SDS011;6493;50.928;7.172;2023-11-19T02:50:04;0.20;;;0.10;;
12848;SDS011;6493;50.928;7.172;2023-11-19T02:55:09;0.20;;;0.20;;
12848;SDS011;6493;50.928;7.172;2023-11-19T03:00:17;0.20;;;0.20;;
12848;SDS011;6493;50.928;7.172;2023-11-19T03:05:25;0.07;;;0.07;;
12848;SDS011;6493;50.928;7.172;2023-11-19T03:10:32;0.10;;;0.10;;
12848;SDS011;6493;50.928;7.172;2023-11-19T03:15:38;0.10;;;0.10;;
12848;SDS011;6493;50.928;7.172;2023-11-19T03:20:41;0.10;;;0.10;;
12848;SDS011;6493;50.928;7.172;2023-11-19T03:25:45;0.93;;;0.40;;
12848;SDS011;6493;50.928;7.172;2023-11-19T03:30:50;0.20;;;0.20;;
12848;SDS011;6493;50.928;7.172;2023-11-19T03:35:56;0.10;;;0.10;;
12848;SDS011;6493;50.928;7.172;2023-11-19T03:40:59;1.20;;;0.30;;
12848;SDS011;6493;50.928;7.172;2023-11-19T03:46:05;0.40;;;0.20;;
12848;SDS011;6493;50.928;7.172;2023-11-19T03:51:18;0.50;;;0.20;;
12848;SDS011;6493;50.928;7.172;2023-11-19T03:56:21;0.83;;;0.20;;
12848;SDS011;6493;50.928;7.172;2023-11-19T04:01:26;0.43;;;0.40;;
12848;SDS011;6493;50.928;7.172;2023-11-19T04:06:30;0.83;;;0.33;;
12848;SDS011;6493;50.928;7.172;2023-11-19T04:11:35;0.53;;;0.23;;
12848;SDS011;6493;50.928;7.172;2023-11-19T04:16:40;1.03;;;0.50;;
12848;SDS011;6493;50.928;7.172;2023-11-19T04:21:45;1.03;;;0.47;;
12848;SDS011;6493;50.928;7.172;2023-11-19T04:26:49;4.10;;;0.40;;
12848;SDS011;6493;50.928;7.172;2023-11-19T04:31:55;1.07;;;0.50;;
12848;SDS011;6493;50.928;7.172;2023-11-19T04:36:59;2.60;;;0.40;;
12848;SDS011;6493;50.928;7.172;2023-11-19T04:42:08;1.93;;;0.63;;
12848;SDS011;6493;50.928;7.172;2023-11-19T04:47:13;1.97;;;0.60;;
12848;SDS011;6493;50.928;7.172;2023-11-19T04:52:17;3.10;;;0.50;;
12848;SDS011;6493;50.928;7.172;2023-11-19T04:57:20;2.97;;;0.50;;
12848;SDS011;6493;50.928;7.172;2023-11-19T05:02:25;1.97;;;0.70;;
12848;SDS011;6493;50.928;7.172;2023-11-19T05:07:29;3.33;;;0.80;;
12848;SDS011;6493;50.928;7.172;2023-11-19T05:12:33;1.00;;;0.67;;
12848;SDS011;6493;50.928;7.172;2023-11-19T05:17:38;1.43;;;0.67;;
12848;SDS011;6493;50.928;7.172;2023-11-19T05:22:42;0.87;;;0.47;;
12848;SDS011;6493;50.928;7.172;2023-11-19T05:27:45;1.67;;;0.63;;
12848;SDS011;6493;50.928;7.172;2023-11-19T05:32:50;1.90;;;0.80;;
12848;SDS011;6493;50.928;7.172;2023-11-19T05:37:54;2.47;;;1.00;;
12848;SDS011;6493;50.928;7.172;2023-11-19T05:42:58;1.27;;;0.50;;
12848;SDS011;6493;50.928;7.172;2023-11-19T05:48:03;1.47;;;0.57;;
12848;SDS011;6493;50.928;7.172;2023-11-19T05:53:07;1.13;;;0.80;;
12848;SDS011;6493;50.928;7.172;2023-11-19T05:58:12;1.93;;;0.60;;
12848;SDS011;6493;50.928;7.172;2023-11-19T06:03:17;1.90;;;0.70;;
12848;SDS011;6493;50.928;7.172;2023-11-19T06:08:21;2.07;;;0.60;;
12848;SDS011;6493;50.928;7.172;2023-11-19T06:13:25;2.20;;;0.67;;
12848;SDS011;6493;50.928;7.172;2023-11-19T06:18:30;1.47;;;0.70;;
12848;SDS011;6493;50.928;7.172;2023-11-19T06:23:34;3.00;;;1.03;;
12848;SDS011;6493;50.928;7.172;2023-11-19T06:28:38;3.23;;;0.60;;
12848;SDS011;6493;50.928;7.172;2023-11-19T06:33:43;3.57;;;0.80;;
12848;SDS011;6493;50.928;7.172;2023-11-19T06:38:46;2.60;;;0.90;;
12848;SDS011;6493;50.928;7.172;2023-11-19T06:43:50;4.03;;;1.10;;
12848;SDS011;6493;50.928;7.172;2023-11-19T06:48:55;4.23;;;1.30;;
12848;SDS011;6493;50.928;7.172;2023-11-19T06:53:59;2.67;;;1.23;;
12848;SDS011;6493;50.928;7.172;2023-11-19T06:59:02;5.03;;;1.67;;
12848;SDS011;6493;50.928;7.172;2023-11-19T07:04:08;5.40;;;1.30;;
12848;SDS011;6493;50.928;7.172;2023-11-19T07:09:13;2.40;;;1.23;;
12848;SDS011;6493;50.928;7.172;2023-11-19T07:14:17;4.97;;;1.10;;
12848;SDS011;6493;50.928;7.172;2023-11-19T07:19:22;6.20;;;1.90;;
12848;SDS011;6493;50.928;7.172;2023-11-19T07:24:26;6.10;;;2.17;;
12848;SDS011;6493;50.928;7.172;2023-11-19T07:29:30;4.60;;;2.50;;
12848;SDS011;6493;50.928;7.172;2023-11-19T07:34:35;3.90;;;1.60;;
12848;SDS011;6493;50.928;7.172;2023-11-19T07:39:39;3.00;;;1.63;;
12848;SDS011;6493;50.928;7.172;2023-11-19T07:44:44;3.40;;;1.60;;
12848;SDS011;6493;50.928;7.172;2023-11-19T07:49:49;2.60;;;1.13;;
12848;SDS011;6493;50.928;7.172;2023-11-19T07:54:53;2.70;;;1.00;;
12848;SDS011;6493;50.928;7.172;2023-11-19T07:59:56;2.23;;;1.07;;
12848;SDS011;6493;50.928;7.172;2023-11-19T08:05:02;3.30;;;1.70;;
12848;SDS011;6493;50.928;7.172;2023-11-19T08:10:06;2.43;;;1.47;;
12848;SDS011;6493;50.928;7.172;2023-11-19T08:15:12;3.50;;;1.47;;
12848;SDS011;6493;50.928;7.172;2023-11-19T08:20:33;4.57;;;1.37;;
12848;SDS011;6493;50.928;7.172;2023-11-19T08:25:37;2.70;;;0.90;;
12848;SDS011;6493;50.928;7.172;2023-11-19T08:30:41;3.90;;;1.20;;
12848;SDS011;6493;50.928;7.172;2023-11-19T08:35:47;4.80;;;1.20;;
12848;SDS011;6493;50.928;7.172;2023-11-19T08:40:51;3.37;;;1.23;;
12848;SDS011;6493;50.928;7.172;2023-11-19T08:45:55;3.03;;;0.90;;
12848;SDS011;6493;50.928;7.172;2023-11-19T08:51:00;4.13;;;1.10;;
12848;SDS011;6493;50.928;7.172;2023-11-19T08:56:03;2.53;;;1.27;;
12848;SDS011;6493;50.928;7.172;2023-11-19T09:01:08;3.23;;;1.33;;
12848;SDS011;6493;50.928;7.172;2023-11-19T09:06:13;4.30;;;1.80;;
12848;SDS011;6493;50.928;7.172;2023-11-19T09:11:17;5.13;;;1.80;;
12848;SDS011;6493;50.928;7.172;2023-11-19T09:16:21;3.27;;;1.27;;
12848;SDS011;6493;50.928;7.172;2023-11-19T09:21:26;5.10;;;1.57;;
12848;SDS011;6493;50.928;7.172;2023-11-19T09:26:31;8.23;;;2.17;;
12848;SDS011;6493;50.928;7.172;2023-11-19T09:31:34;5.63;;;1.63;;
12848;SDS011;6493;50.928;7.172;2023-11-19T09:36:41;6.23;;;1.90;;
12848;SDS011;6493;50.928;7.172;2023-11-19T09:41:46;6.73;;;2.10;;
12848;SDS011;6493;50.928;7.172;2023-11-19T09:46:51;3.63;;;1.13;;
12848;SDS011;6493;50.928;7.172;2023-11-19T09:51:57;6.20;;;1.77;;
12848;SDS011;6493;50.928;7.172;2023-11-19T09:57:01;7.30;;;2.10;;
12848;SDS011;6493;50.928;7.172;2023-11-19T10:02:07;6.47;;;1.77;;
12848;SDS011;6493;50.928;7.172;2023-11-19T10:07:14;7.13;;;1.80;;
12848;SDS011;6493;50.928;7.172;2023-11-19T10:12:18;5.63;;;1.90;;
12848;SDS011;6493;50.928;7.172;2023-11-19T10:17:21;4.93;;;1.83;;
12848;SDS011;6493;50.928;7.172;2023-11-19T10:22:36;9.70;;;1.87;;
12848;SDS011;6493;50.928;7.172;2023-11-19T10:27:40;6.43;;;2.10;;
12848;SDS011;6493;50.928;7.172;2023-11-19T10:32:43;5.73;;;2.07;;
12848;SDS011;6493;50.928;7.172;2023-11-19T10:37:48;9.97;;;1.97;;
12848;SDS011;6493;50.928;7.172;2023-11-19T10:43:01;6.83;;;2.07;;
12848;SDS011;6493;50.928;7.172;2023-11-19T10:48:05;5.23;;;1.80;;
12848;SDS011;6493;50.928;7.172;2023-11-19T10:53:11;6.73;;;2.03;;
12848;SDS011;6493;50.928;7.172;2023-11-19T10:59:46;3.27;;;1.43;;
12848;SDS011;6493;50.928;7.172;2023-11-19T11:04:53;4.53;;;1.47;;
12848;SDS011;6493;50.928;7.172;2023-11-19T11:09:59;4.63;;;1.67;;
12848;SDS011;6493;50.928;7.172;2023-11-19T11:15:05;5.80;;;1.60;;
12848;SDS011;6493;50.928;7.172;2023-11-19T11:20:10;5.37;;;1.70;;
12848;SDS011;6493;50.928;7.172;2023-11-19T11:25:19;5.20;;;1.60;;
12848;SDS011;6493;50.928;7.172;2023-11-19T11:30:31;6.30;;;1.60;;
12848;SDS011;6493;50.928;7.172;2023-11-19T11:35:46;4.63;;;1.67;;
12848;SDS011;6493;50.928;7.172;2023-11-19T11:52:00;3.63;;;1.00;;
12848;SDS011;6493;50.928;7.172;2023-11-19T11:57:10;5.23;;;1.80;;
12848;SDS011;6493;50.928;7.172;2023-11-19T12:02:16;5.03;;;1.30;;
12848;SDS011;6493;50.928;7.172;2023-11-19T12:07:23;3.63;;;1.00;;
12848;SDS011;6493;50.928;7.172;2023-11-19T12:12:29;2.93;;;1.10;;
12848;SDS011;6493;50.928;7.172;2023-11-19T12:17:41;8.20;;;2.10;;
12848;SDS011;6493;50.928;7.172;2023-11-19T12:22:51;3.73;;;1.20;;
12848;SDS011;6493;50.928;7.172;2023-11-19T12:27:57;3.50;;;1.10;;
12848;SDS011;6493;50.928;7.172;2023-11-19T12:33:07;3.93;;;1.20;;
12848;SDS011;6493;50.928;7.172;2023-11-19T12:38:18;5.00;;;1.47;;
12848;SDS011;6493;50.928;7.172;2023-11-19T12:43:23;5.57;;;1.70;;
12848;SDS011;6493;50.928;7.172;2023-11-19T12:48:27;2.53;;;1.20;;
12848;SDS011;6493;50.928;7.172;2023-11-19T12:53:46;5.10;;;1.20;;
12848;SDS011;6493;50.928;7.172;2023-11-19T12:58:52;2.47;;;0.77;;
12848;SDS011;6493;50.928;7.172;2023-11-19T13:03:56;3.97;;;1.37;;
12848;SDS011;6493;50.928;7.172;2023-11-19T13:09:00;4.37;;;1.40;;
12848;SDS011;6493;50.928;7.172;2023-11-19T13:14:06;2.27;;;1.30;;
12848;SDS011;6493;50.928;7.172;2023-11-19T13:19:11;5.57;;;1.40;;
12848;SDS011;6493;50.928;7.172;2023-11-19T13:24:15;2.03;;;0.90;;
12848;SDS011;6493;50.928;7.172;2023-11-19T13:29:20;2.80;;;1.03;;
12848;SDS011;6493;50.928;7.172;2023-11-19T13:34:23;2.90;;;1.03;;
12848;SDS011;6493;50.928;7.172;2023-11-19T13:39:27;3.90;;;1.17;;
12848;SDS011;6493;50.928;7.172;2023-11-19T13:44:32;6.13;;;1.60;;
12848;SDS011;6493;50.928;7.172;2023-11-19T13:49:36;3.70;;;1.27;;
12848;SDS011;6493;50.928;7.172;2023-11-19T13:54:40;4.87;;;2.00;;
12848;SDS011;6493;50.928;7.172;2023-11-19T13:59:45;3.97;;;1.40;;
12848;SDS011;6493;50.928;7.172;2023-11-19T14:04:48;3.50;;;1.40;;
12848;SDS011;6493;50.928;7.172;2023-11-19T14:09:52;4.97;;;1.30;;
12848;SDS011;6493;50.928;7.172;2023-11-19T14:14:57;3.23;;;1.10;;
12848;SDS011;6493;50.928;7.172;2023-11-19T14:20:01;1.70;;;0.90;;
12848;SDS011;6493;50.928;7.172;2023-11-19T14:25:07;2.20;;;0.93;;
12848;SDS011;6493;50.928;7.172;2023-11-19T14:30:13;2.20;;;0.90;;
12848;SDS011;6493;50.928;7.172;2023-11-19T14:35:17;6.77;;;2.03;;
12848;SDS011;6493;50.928;7.172;2023-11-19T14:40:22;3.27;;;1.47;;
12848;SDS011;6493;50.928;7.172;2023-11-19T14:45:45;3.83;;;1.07;;
12848;SDS011;6493;50.928;7.172;2023-11-19T14:50:51;4.27;;;1.30;;
12848;SDS011;6493;50.928;7.172;2023-11-19T14:55:55;5.77;;;1.73;;
12848;SDS011;6493;50.928;7.172;2023-11-19T15:01:00;7.97;;;2.33;;
12848;SDS011;6493;50.928;7.172;2023-11-19T15:06:06;4.60;;;1.90;;
12848;SDS011;6493;50.928;7.172;2023-11-19T15:11:11;4.13;;;1.70;;
12848;SDS011;6493;50.928;7.172;2023-11-19T15:16:16;6.00;;;1.70;;
12848;SDS011;6493;50.928;7.172;2023-11-19T15:21:26;4.73;;;1.53;;
12848;SDS011;6493;50.928;7.172;2023-11-19T15:26:30;3.27;;;1.10;;
12848;SDS011;6493;50.928;7.172;2023-11-19T15:31:36;6.00;;;1.80;;
12848;SDS011;6493;50.928;7.172;2023-11-19T15:36:39;5.40;;;1.70;;
12848;SDS011;6493;50.928;7.172;2023-11-19T15:41:44;3.37;;;1.10;;
12848;SDS011;6493;50.928;7.172;2023-11-19T15:46:49;8.17;;;1.60;;
12848;SDS011;6493;50.928;7.172;2023-11-19T15:51:52;3.57;;;1.33;;
12848;SDS011;6493;50.928;7.172;2023-11-19T15:56:56;3.77;;;1.30;;
12848;SDS011;6493;50.928;7.172;2023-11-19T16:02:01;3.23;;;1.20;;
12848;SDS011;6493;50.928;7.172;2023-11-19T16:07:05;2.50;;;0.83;;
12848;SDS011;6493;50.928;7.172;2023-11-19T16:12:09;2.50;;;0.97;;
12848;SDS011;6493;50.928;7.172;2023-11-19T16:17:14;3.00;;;1.20;;
12848;SDS011;6493;50.928;7.172;2023-11-19T16:22:18;3.40;;;1.03;;
12848;SDS011;6493;50.928;7.172;2023-11-19T16:27:24;2.63;;;1.03;;
12848;SDS011;6493;50.928;7.172;2023-11-19T16:32:31;3.87;;;1.43;;
12848;SDS011;6493;50.928;7.172;2023-11-19T16:37:35;3.70;;;1.37;;
12848;SDS011;6493;50.928;7.172;2023-11-19T16:42:41;2.60;;;1.57;;
12848;SDS011;6493;50.928;7.172;2023-11-19T16:47:46;5.00;;;1.40;;
12848;SDS011;6493;50.928;7.172;2023-11-19T16:52:50;4.80;;;2.00;;
12848;SDS011;6493;50.928;7.172;2023-11-19T16:57:54;4.37;;;1.50;;
12848;SDS011;6493;50.928;7.172;2023-11-19T17:02:59;4.90;;;1.57;;
12848;SDS011;6493;50.928;7.172;2023-11-19T17:08:04;1.77;;;0.90;;
12848;SDS011;6493;50.928;7.172;2023-11-19T17:13:08;3.70;;;1.30;;
12848;SDS011;6493;50.928;7.172;2023-11-19T17:18:14;4.67;;;1.30;;
12848;SDS011;6493;50.928;7.172;2023-11-19T17:23:19;3.97;;;1.40;;
12848;SDS011;6493;50.928;7.172;2023-11-19T17:28:23;3.20;;;1.30;;
12848;SDS011;6493;50.928;7.172;2023-11-19T17:33:28;4.67;;;1.80;;
12848;SDS011;6493;50.928;7.172;2023-11-19T17:38:32;5.87;;;1.50;;
12848;SDS011;6493;50.928;7.172;2023-11-19T17:43:36;4.13;;;1.57;;
12848;SDS011;6493;50.928;7.172;2023-11-19T17:48:40;4.77;;;1.40;;
12848;SDS011;6493;50.928;7.172;2023-11-19T17:53:44;3.93;;;1.37;;
12848;SDS011;6493;50.928;7.172;2023-11-19T17:58:48;4.73;;;1.50;;
12848;SDS011;6493;50.928;7.172;2023-11-19T18:03:53;3.60;;;1.23;;
12848;SDS011;6493;50.928;7.172;2023-11-19T18:08:57;4.73;;;1.47;;
12848;SDS011;6493;50.928;7.172;2023-11-19T18:14:00;3.17;;;1.30;;
12848;SDS011;6493;50.928;7.172;2023-11-19T18:19:05;3.10;;;1.30;;
12848;SDS011;6493;50.928;7.172;2023-11-19T18:24:09;3.33;;;1.20;;
12848;SDS011;6493;50.928;7.172;2023-11-19T18:29:13;6.27;;;1.70;;
12848;SDS011;6493;50.928;7.172;2023-11-19T18:34:20;3.37;;;0.90;;
12848;SDS011;6493;50.928;7.172;2023-11-19T18:39:24;2.87;;;0.90;;
12848;SDS011;6493;50.928;7.172;2023-11-19T18:44:28;2.57;;;1.00;;
12848;SDS011;6493;50.928;7.172;2023-11-19T18:49:33;5.43;;;1.37;;
12848;SDS011;6493;50.928;7.172;2023-11-19T18:54:37;2.57;;;1.00;;
12848;SDS011;6493;50.928;7.172;2023-11-19T18:59:41;6.47;;;1.70;;
12848;SDS011;6493;50.928;7.172;2023-11-19T19:04:46;2.97;;;1.17;;
12848;SDS011;6493;50.928;7.172;2023-11-19T19:09:50;4.03;;;1.10;;
12848;SDS011;6493;50.928;7.172;2023-11-19T19:14:56;4.00;;;1.30;;
12848;SDS011;6493;50.928;7.172;2023-11-19T19:20:07;3.07;;;1.47;;
12848;SDS011;6493;50.928;7.172;2023-11-19T19:25:12;3.23;;;1.10;;
12848;SDS011;6493;50.928;7.172;2023-11-19T19:30:17;5.33;;;1.30;;
12848;SDS011;6493;50.928;7.172;2023-11-19T19:35:23;3.50;;;1.60;;
12848;SDS011;6493;50.928;7.172;2023-11-19T19:40:30;4.47;;;1.33;;
12848;SDS011;6493;50.928;7.172;2023-11-19T19:45:34;2.17;;;1.10;;
12848;SDS011;6493;50.928;7.172;2023-11-19T19:50:39;3.17;;;1.10;;
12848;SDS011;6493;50.928;7.172;2023-11-19T19:55:43;3.33;;;1.20;;
12848;SDS011;6493;50.928;7.172;2023-11-19T20:00:46;2.37;;;0.90;;
12848;SDS011;6493;50.928;7.172;2023-11-19T20:05:52;3.17;;;1.03;;
12848;SDS011;6493;50.928;7.172;2023-11-19T20:10:59;3.13;;;0.90;;
12848;SDS011;6493;50.928;7.172;2023-11-19T20:16:03;2.27;;;0.80;;
12848;SDS011;6493;50.928;7.172;2023-11-19T20:21:09;2.03;;;1.30;;
12848;SDS011;6493;50.928;7.172;2023-11-19T20:26:13;1.67;;;0.90;;
12848;SDS011;6493;50.928;7.172;2023-11-19T20:31:20;3.27;;;1.20;;
12848;SDS011;6493;50.928;7.172;2023-11-19T20:36:25;2.83;;;1.37;;
12848;SDS011;6493;50.928;7.172;2023-11-19T20:41:29;2.00;;;1.10;;
12848;SDS011;6493;50.928;7.172;2023-11-19T20:46:32;2.30;;;0.77;;
12848;SDS011;6493;50.928;7.172;2023-11-19T20:51:37;3.83;;;0.90;;
12848;SDS011;6493;50.928;7.172;2023-11-19T20:56:41;1.30;;;0.80;;
12848;SDS011;6493;50.928;7.172;2023-11-19T21:01:45;1.43;;;0.83;;
12848;SDS011;6493;50.928;7.172;2023-11-19T21:06:50;1.20;;;0.63;;
12848;SDS011;6493;50.928;7.172;2023-11-19T21:11:56;1.80;;;0.87;;
12848;SDS011;6493;50.928;7.172;2023-11-19T21:17:03;2.73;;;1.00;;
12848;SDS011;6493;50.928;7.172;2023-11-19T21:22:09;3.90;;;1.17;;
12848;SDS011;6493;50.928;7.172;2023-11-19T21:27:12;1.97;;;0.73;;
12848;SDS011;6493;50.928;7.172;2023-11-19T21:32:16;2.60;;;0.90;;
12848;SDS011;6493;50.928;7.172;2023-11-19T21:37:21;1.70;;;0.80;;
12848;SDS011;6493;50.928;7.172;2023-11-19T21:42:25;0.83;;;0.50;;
12848;SDS011;6493;50.928;7.172;2023-11-19T21:47:29;2.73;;;1.03;;
12848;SDS011;6493;50.928;7.172;2023-11-19T21:52:34;2.33;;;0.90;;
12848;SDS011;6493;50.928;7.172;2023-11-19T21:57:38;1.73;;;0.60;;
12848;SDS011;6493;50.928;7.172;2023-11-19T22:02:43;3.40;;;1.07;;
12848;SDS011;6493;50.928;7.172;2023-11-19T22:07:48;2.27;;;0.80;;
12848;SDS011;6493;50.928;7.172;2023-11-19T22:12:52;2.27;;;0.70;;
12848;SDS011;6493;50.928;7.172;2023-11-19T22:17:55;2.17;;;0.70;;
12848;SDS011;6493;50.928;7.172;2023-11-19T22:23:00;2.07;;;0.90;;
12848;SDS011;6493;50.928;7.172;2023-11-19T22:28:04;1.67;;;0.50;;
12848;SDS011;6493;50.928;7.172;2023-11-19T22:33:08;0.97;;;0.50;;
12848;SDS011;6493;50.928;7.172;2023-11-19T22:38:13;1.67;;;0.70;;
12848;SDS011;6493;50.928;7.172;2023-11-19T22:43:17;1.27;;;0.57;;
12848;SDS011;6493;50.928;7.172;2023-11-19T22:48:21;2.33;;;0.73;;
12848;SDS011;6493;50.928;7.172;2023-11-19T22:53:26;0.80;;;0.70;;
12848;SDS011;6493;50.928;7.172;2023-11-19T22:58:30;0.60;;;0.40;;
12848;SDS011;6493;50.928;7.172;2023-11-19T23:03:33;1.57;;;0.50;;
12848;SDS011;6493;50.928;7.172;2023-11-19T23:08:39;1.53;;;0.50;;
12848;SDS011;6493;50.928;7.172;2023-11-19T23:13:42;0.80;;;0.50;;
12848;SDS011;6493;50.928;7.172;2023-11-19T23:18:46;0.90;;;0.53;;
12848;SDS011;6493;50.928;7.172;2023-11-19T23:23:51;1.43;;;0.60;;
12848;SDS011;6493;50.928;7.172;2023-11-19T23:28:55;0.60;;;0.40;;
12848;SDS011;6493;50.928;7.172;2023-11-19T23:34:14;1.57;;;0.40;;
12848;SDS011;6493;50.928;7.172;2023-11-19T23:39:19;2.30;;;0.83;;
12848;SDS011;6493;50.928;7.172;2023-11-19T23:44:22;1.80;;;0.67;;
12848;SDS011;6493;50.928;7.172;2023-11-19T23:49:26;1.00;;;0.60;;
12848;SDS011;6493;50.928;7.172;2023-11-19T23:54:34;1.00;;;0.60;;
12848;SDS011;6493;50.928;7.172;2023-11-19T23:59:39;2.00;;;0.50;;
